Terminal Aerodrome Forecast
Issued by NWS Jackson, KY

Home | Current Version | Previous Version | Text Only | Print | Product List | Glossary On
Versions: 1 2 3 4 5 6 7 8 9 10 11 12 13 14 15
000
FTUS43 KJKL 241137
TAFJKL
TAF
KJKL 241137Z 2412/2512 05004KT P6SM BKN080
     FM241800 VRB05KT P6SM VCSH BKN050 BKN100
     FM250000 VRB03KT P6SM SCT050 BKN100
     FM251000 19005KT P6SM VCSH BKN050=

USA.gov is the U.S. government's official web portal to all federal, state and local government web resources and services.